Terminal Aerodrome Forecast
Issued by NWS Cleveland, OH

Home | Current Version | Previous Version | Text Only | Print | Product List | Glossary On
Versions: 1 2 3 4 5 6 7 8 9 10 11 12 13 14 15 16 17 18 19 20 21 22 23 24 25 26 27 28
000
FTUS41 KCLE 020800 AAA
TAFCLE
TAF AMD
KCLE 020852Z 0209/0312 23009KT P6SM SCT045
      TEMPO 0209/0210 BKN045
     FM021000 23010KT P6SM BKN045
     FM021200 23010KT 6SM -SHRA BR VCTS SCT025CB BKN045
      TEMPO 0212/0216 4SM -SHRA BR BKN025
     FM021600 24012KT P6SM VCSH BKN025
     FM022000 25010KT P6SM BKN050
     FM022200 25008KT P6SM SCT050 BKN250
     FM030200 22005KT P6SM SCT120 BKN250
     FM030800 20004KT 5SM BR SCT250=

USA.gov is the U.S. government's official web portal to all federal, state and local government web resources and services.